sensor_id;sensor_type;location;lat;lon;timestamp;temperature;humidity
23143;DHT22;11740;51.168;4.112;2022-07-23T00:00:20;18.90;23.80
23143;DHT22;11740;51.168;4.112;2022-07-23T00:02:47;18.80;16.70
23143;DHT22;11740;51.168;4.112;2022-07-23T00:05:14;18.80;1.00
23143;DHT22;11740;51.168;4.112;2022-07-23T00:07:41;18.80;4.30
23143;DHT22;11740;51.168;4.112;2022-07-23T00:10:09;18.70;18.20
23143;DHT22;11740;51.168;4.112;2022-07-23T00:12:36;18.70;1.00
23143;DHT22;11740;51.168;4.112;2022-07-23T00:15:17;18.60;42.20
23143;DHT22;11740;51.168;4.112;2022-07-23T00:17:44;18.60;56.50
23143;DHT22;11740;51.168;4.112;2022-07-23T00:20:11;18.60;15.10
23143;DHT22;11740;51.168;4.112;2022-07-23T00:22:49;18.50;24.70
23143;DHT22;11740;51.168;4.112;2022-07-23T00:25:18;18.50;24.30
23143;DHT22;11740;51.168;4.112;2022-07-23T00:27:55;18.40;30.90
23143;DHT22;11740;51.168;4.112;2022-07-23T00:30:23;18.40;5.60
23143;DHT22;11740;51.168;4.112;2022-07-23T00:32:56;18.30;45.80
23143;DHT22;11740;51.168;4.112;2022-07-23T00:35:27;18.30;30.50
23143;DHT22;11740;51.168;4.112;2022-07-23T00:37:56;18.30;66.50
23143;DHT22;11740;51.168;4.112;2022-07-23T00:40:25;18.20;54.00
23143;DHT22;11740;51.168;4.112;2022-07-23T00:42:53;18.10;99.90
23143;DHT22;11740;51.168;4.112;2022-07-23T00:45:20;18.10;97.70
23143;DHT22;11740;51.168;4.112;2022-07-23T00:47:48;18.00;99.90
23143;DHT22;11740;51.168;4.112;2022-07-23T00:50:15;18.00;45.80
23143;DHT22;11740;51.168;4.112;2022-07-23T00:52:42;18.00;26.40
23143;DHT22;11740;51.168;4.112;2022-07-23T00:55:11;18.00;49.80
23143;DHT22;11740;51.168;4.112;2022-07-23T00:57:39;18.00;14.60
23143;DHT22;11740;51.168;4.112;2022-07-23T01:00:09;17.90;16.00
23143;DHT22;11740;51.168;4.112;2022-07-23T01:02:38;17.90;5.30
23143;DHT22;11740;51.168;4.112;2022-07-23T01:05:07;17.80;6.50
23143;DHT22;11740;51.168;4.112;2022-07-23T01:07:36;17.80;78.50
23143;DHT22;11740;51.168;4.112;2022-07-23T01:10:07;17.70;25.70
23143;DHT22;11740;51.168;4.112;2022-07-23T01:12:54;17.70;67.60
23143;DHT22;11740;51.168;4.112;2022-07-23T01:15:21;17.70;96.10
23143;DHT22;11740;51.168;4.112;2022-07-23T01:17:50;17.60;52.30
23143;DHT22;11740;51.168;4.112;2022-07-23T01:20:18;17.60;49.40
23143;DHT22;11740;51.168;4.112;2022-07-23T01:22:46;17.60;30.80
23143;DHT22;11740;51.168;4.112;2022-07-23T01:25:14;17.50;73.50
23143;DHT22;11740;51.168;4.112;2022-07-23T01:27:41;17.50;14.40
23143;DHT22;11740;51.168;4.112;2022-07-23T01:30:09;17.50;19.70
23143;DHT22;11740;51.168;4.112;2022-07-23T01:32:37;17.40;23.30
23143;DHT22;11740;51.168;4.112;2022-07-23T01:35:05;17.40;48.30
23143;DHT22;11740;51.168;4.112;2022-07-23T01:37:33;17.30;94.40
23143;DHT22;11740;51.168;4.112;2022-07-23T01:40:06;17.30;99.90
23143;DHT22;11740;51.168;4.112;2022-07-23T01:42:33;17.20;27.40
23143;DHT22;11740;51.168;4.112;2022-07-23T01:45:01;17.20;73.10
23143;DHT22;11740;51.168;4.112;2022-07-23T01:47:28;17.10;49.60
23143;DHT22;11740;51.168;4.112;2022-07-23T01:49:55;17.10;48.30
23143;DHT22;11740;51.168;4.112;2022-07-23T01:52:22;17.10;71.40
23143;DHT22;11740;51.168;4.112;2022-07-23T01:54:49;17.00;51.20
23143;DHT22;11740;51.168;4.112;2022-07-23T01:57:16;17.00;92.50
23143;DHT22;11740;51.168;4.112;2022-07-23T01:59:43;17.00;99.90
23143;DHT22;11740;51.168;4.112;2022-07-23T02:02:10;17.00;99.90
23143;DHT22;11740;51.168;4.112;2022-07-23T02:04:38;16.90;99.90
23143;DHT22;11740;51.168;4.112;2022-07-23T02:07:06;16.90;64.70
23143;DHT22;11740;51.168;4.112;2022-07-23T02:09:47;16.80;45.80
23143;DHT22;11740;51.168;4.112;2022-07-23T02:12:14;16.80;99.90
23143;DHT22;11740;51.168;4.112;2022-07-23T02:14:41;16.80;99.90
23143;DHT22;11740;51.168;4.112;2022-07-23T02:17:09;16.70;99.90
23143;DHT22;11740;51.168;4.112;2022-07-23T02:19:37;16.70;97.60
23143;DHT22;11740;51.168;4.112;2022-07-23T02:22:04;16.60;99.90
23143;DHT22;11740;51.168;4.112;2022-07-23T02:24:31;16.60;99.90
23143;DHT22;11740;51.168;4.112;2022-07-23T02:26:58;16.60;99.90
23143;DHT22;11740;51.168;4.112;2022-07-23T02:29:25;16.50;99.90
23143;DHT22;11740;51.168;4.112;2022-07-23T02:31:51;16.40;99.90
23143;DHT22;11740;51.168;4.112;2022-07-23T02:34:20;16.40;1.00
23143;DHT22;11740;51.168;4.112;2022-07-23T02:36:47;16.30;1.00
23143;DHT22;11740;51.168;4.112;2022-07-23T02:39:14;16.30;1.00
23143;DHT22;11740;51.168;4.112;2022-07-23T02:41:42;16.30;99.90
23143;DHT22;11740;51.168;4.112;2022-07-23T02:44:09;16.30;99.90
23143;DHT22;11740;51.168;4.112;2022-07-23T02:46:36;16.30;99.90
23143;DHT22;11740;51.168;4.112;2022-07-23T02:49:03;16.20;99.90
23143;DHT22;11740;51.168;4.112;2022-07-23T02:51:32;16.20;1.00
23143;DHT22;11740;51.168;4.112;2022-07-23T02:53:59;16.20;99.90
23143;DHT22;11740;51.168;4.112;2022-07-23T02:56:26;16.20;99.90
23143;DHT22;11740;51.168;4.112;2022-07-23T02:58:53;16.10;99.90
23143;DHT22;11740;51.168;4.112;2022-07-23T03:01:21;16.10;99.90
23143;DHT22;11740;51.168;4.112;2022-07-23T03:03:48;16.00;99.90
23143;DHT22;11740;51.168;4.112;2022-07-23T03:06:16;16.00;99.90
23143;DHT22;11740;51.168;4.112;2022-07-23T03:08:43;16.00;99.90
23143;DHT22;11740;51.168;4.112;2022-07-23T03:11:10;15.90;1.00
23143;DHT22;11740;51.168;4.112;2022-07-23T03:13:38;15.80;99.90
23143;DHT22;11740;51.168;4.112;2022-07-23T03:16:06;15.80;80.60
23143;DHT22;11740;51.168;4.112;2022-07-23T03:18:33;15.70;99.90
23143;DHT22;11740;51.168;4.112;2022-07-23T03:21:06;15.70;1.00
23143;DHT22;11740;51.168;4.112;2022-07-23T03:23:33;15.70;99.90
23143;DHT22;11740;51.168;4.112;2022-07-23T03:26:01;15.70;99.90
23143;DHT22;11740;51.168;4.112;2022-07-23T03:28:28;15.70;66.50
23143;DHT22;11740;51.168;4.112;2022-07-23T03:30:55;15.70;1.00
23143;DHT22;11740;51.168;4.112;2022-07-23T03:33:22;15.60;24.40
23143;DHT22;11740;51.168;4.112;2022-07-23T03:35:49;15.60;1.00
23143;DHT22;11740;51.168;4.112;2022-07-23T03:38:16;15.50;10.70
23143;DHT22;11740;51.168;4.112;2022-07-23T03:40:45;15.50;1.00
23143;DHT22;11740;51.168;4.112;2022-07-23T03:43:12;15.40;1.00
23143;DHT22;11740;51.168;4.112;2022-07-23T03:45:39;15.40;99.90
23143;DHT22;11740;51.168;4.112;2022-07-23T03:48:06;15.30;1.00
23143;DHT22;11740;51.168;4.112;2022-07-23T03:50:33;15.30;99.90
23143;DHT22;11740;51.168;4.112;2022-07-23T03:53:01;15.20;1.00
23143;DHT22;11740;51.168;4.112;2022-07-23T03:55:28;15.30;99.90
23143;DHT22;11740;51.168;4.112;2022-07-23T03:57:55;15.30;99.90
23143;DHT22;11740;51.168;4.112;2022-07-23T04:00:22;15.30;99.90
23143;DHT22;11740;51.168;4.112;2022-07-23T04:02:49;15.30;1.00
23143;DHT22;11740;51.168;4.112;2022-07-23T04:05:16;15.20;1.00
23143;DHT22;11740;51.168;4.112;2022-07-23T04:07:44;15.20;96.80
23143;DHT22;11740;51.168;4.112;2022-07-23T04:10:11;15.10;1.00
23143;DHT22;11740;51.168;4.112;2022-07-23T04:12:38;15.10;1.00
23143;DHT22;11740;51.168;4.112;2022-07-23T04:15:07;15.10;1.00
23143;DHT22;11740;51.168;4.112;2022-07-23T04:17:35;15.00;1.00
23143;DHT22;11740;51.168;4.112;2022-07-23T04:20:03;14.90;99.90
23143;DHT22;11740;51.168;4.112;2022-07-23T04:22:30;14.80;1.00
23143;DHT22;11740;51.168;4.112;2022-07-23T04:24:57;14.80;1.00
23143;DHT22;11740;51.168;4.112;2022-07-23T04:27:25;14.80;1.00
23143;DHT22;11740;51.168;4.112;2022-07-23T04:29:52;14.80;1.00
23143;DHT22;11740;51.168;4.112;2022-07-23T04:32:19;14.70;99.90
23143;DHT22;11740;51.168;4.112;2022-07-23T04:34:46;14.70;5.30
23143;DHT22;11740;51.168;4.112;2022-07-23T04:37:14;14.70;1.00
23143;DHT22;11740;51.168;4.112;2022-07-23T04:39:41;14.70;1.00
23143;DHT22;11740;51.168;4.112;2022-07-23T04:42:08;14.70;99.90
23143;DHT22;11740;51.168;4.112;2022-07-23T04:44:35;14.70;1.00
23143;DHT22;11740;51.168;4.112;2022-07-23T04:47:02;14.60;1.00
23143;DHT22;11740;51.168;4.112;2022-07-23T04:49:29;14.60;22.70
23143;DHT22;11740;51.168;4.112;2022-07-23T04:51:56;14.70;1.00
23143;DHT22;11740;51.168;4.112;2022-07-23T04:54:22;14.70;1.00
23143;DHT22;11740;51.168;4.112;2022-07-23T04:56:49;14.70;1.00
23143;DHT22;11740;51.168;4.112;2022-07-23T04:59:16;14.70;1.00
23143;DHT22;11740;51.168;4.112;2022-07-23T05:01:51;14.60;1.00
23143;DHT22;11740;51.168;4.112;2022-07-23T05:04:18;14.70;99.90
23143;DHT22;11740;51.168;4.112;2022-07-23T05:06:46;14.60;1.00
23143;DHT22;11740;51.168;4.112;2022-07-23T05:09:13;14.60;1.00
23143;DHT22;11740;51.168;4.112;2022-07-23T05:11:41;14.60;99.90
23143;DHT22;11740;51.168;4.112;2022-07-23T05:14:08;14.60;1.00
23143;DHT22;11740;51.168;4.112;2022-07-23T05:16:35;14.60;82.20
23143;DHT22;11740;51.168;4.112;2022-07-23T05:19:02;14.60;1.00
23143;DHT22;11740;51.168;4.112;2022-07-23T05:21:31;14.60;99.90
23143;DHT22;11740;51.168;4.112;2022-07-23T05:23:58;14.70;99.90
23143;DHT22;11740;51.168;4.112;2022-07-23T05:26:26;14.70;1.00
23143;DHT22;11740;51.168;4.112;2022-07-23T05:28:53;14.80;99.90
23143;DHT22;11740;51.168;4.112;2022-07-23T05:31:20;14.80;99.90
23143;DHT22;11740;51.168;4.112;2022-07-23T05:33:47;14.80;99.90
23143;DHT22;11740;51.168;4.112;2022-07-23T05:36:14;14.80;77.60
23143;DHT22;11740;51.168;4.112;2022-07-23T05:38:41;14.80;88.60
23143;DHT22;11740;51.168;4.112;2022-07-23T05:41:08;14.90;1.00
23143;DHT22;11740;51.168;4.112;2022-07-23T05:43:35;14.90;1.00
23143;DHT22;11740;51.168;4.112;2022-07-23T05:46:02;14.90;99.90
23143;DHT22;11740;51.168;4.112;2022-07-23T05:48:29;14.90;99.90
23143;DHT22;11740;51.168;4.112;2022-07-23T05:50:56;14.90;1.00
23143;DHT22;11740;51.168;4.112;2022-07-23T05:53:23;14.90;99.90
23143;DHT22;11740;51.168;4.112;2022-07-23T05:55:50;15.00;1.00
23143;DHT22;11740;51.168;4.112;2022-07-23T05:58:17;15.00;1.00
23143;DHT22;11740;51.168;4.112;2022-07-23T06:00:44;15.00;1.00
23143;DHT22;11740;51.168;4.112;2022-07-23T06:03:11;15.10;99.90
23143;DHT22;11740;51.168;4.112;2022-07-23T06:05:38;15.10;69.00
23143;DHT22;11740;51.168;4.112;2022-07-23T06:08:05;15.10;88.40
23143;DHT22;11740;51.168;4.112;2022-07-23T06:10:32;15.20;1.00
23143;DHT22;11740;51.168;4.112;2022-07-23T06:12:59;15.30;1.00
23143;DHT22;11740;51.168;4.112;2022-07-23T06:15:28;15.30;1.00
23143;DHT22;11740;51.168;4.112;2022-07-23T06:17:57;15.30;99.90
23143;DHT22;11740;51.168;4.112;2022-07-23T06:20:24;15.40;1.00
23143;DHT22;11740;51.168;4.112;2022-07-23T06:22:51;15.40;1.00
23143;DHT22;11740;51.168;4.112;2022-07-23T06:25:19;15.50;99.90
23143;DHT22;11740;51.168;4.112;2022-07-23T06:27:47;15.50;1.00
23143;DHT22;11740;51.168;4.112;2022-07-23T06:30:14;15.50;99.90
23143;DHT22;11740;51.168;4.112;2022-07-23T06:32:47;15.60;1.00
23143;DHT22;11740;51.168;4.112;2022-07-23T06:35:16;15.60;99.90
23143;DHT22;11740;51.168;4.112;2022-07-23T06:37:44;15.60;1.00
23143;DHT22;11740;51.168;4.112;2022-07-23T06:40:14;15.70;83.00
23143;DHT22;11740;51.168;4.112;2022-07-23T06:42:41;15.80;99.90
23143;DHT22;11740;51.168;4.112;2022-07-23T06:45:08;15.90;1.00
23143;DHT22;11740;51.168;4.112;2022-07-23T06:47:36;16.00;1.00
23143;DHT22;11740;51.168;4.112;2022-07-23T06:50:03;16.00;99.90
23143;DHT22;11740;51.168;4.112;2022-07-23T06:52:31;16.00;60.70
23143;DHT22;11740;51.168;4.112;2022-07-23T06:54:58;16.10;1.00
23143;DHT22;11740;51.168;4.112;2022-07-23T06:57:26;16.10;43.40
23143;DHT22;11740;51.168;4.112;2022-07-23T06:59:54;16.20;1.40
23143;DHT22;11740;51.168;4.112;2022-07-23T07:02:22;16.20;99.90
23143;DHT22;11740;51.168;4.112;2022-07-23T07:04:49;16.40;99.90
23143;DHT22;11740;51.168;4.112;2022-07-23T07:07:16;16.30;1.00
23143;DHT22;11740;51.168;4.112;2022-07-23T07:09:43;16.40;99.90
23143;DHT22;11740;51.168;4.112;2022-07-23T07:12:14;16.50;1.00
23143;DHT22;11740;51.168;4.112;2022-07-23T07:14:41;16.50;1.00
23143;DHT22;11740;51.168;4.112;2022-07-23T07:17:08;16.50;1.00
23143;DHT22;11740;51.168;4.112;2022-07-23T07:19:37;16.60;1.00
23143;DHT22;11740;51.168;4.112;2022-07-23T07:22:04;16.70;1.00
23143;DHT22;11740;51.168;4.112;2022-07-23T07:24:31;16.70;1.00
23143;DHT22;11740;51.168;4.112;2022-07-23T07:27:04;16.80;1.00
23143;DHT22;11740;51.168;4.112;2022-07-23T07:29:31;16.90;1.00
23143;DHT22;11740;51.168;4.112;2022-07-23T07:31:59;17.00;99.90
23143;DHT22;11740;51.168;4.112;2022-07-23T07:34:26;17.00;99.90
23143;DHT22;11740;51.168;4.112;2022-07-23T07:36:53;17.10;99.90
23143;DHT22;11740;51.168;4.112;2022-07-23T07:39:20;17.10;99.90
23143;DHT22;11740;51.168;4.112;2022-07-23T07:41:47;17.10;17.20
23143;DHT22;11740;51.168;4.112;2022-07-23T07:44:13;17.20;99.90
23143;DHT22;11740;51.168;4.112;2022-07-23T07:46:40;17.20;60.90
23143;DHT22;11740;51.168;4.112;2022-07-23T07:49:07;17.20;1.00
23143;DHT22;11740;51.168;4.112;2022-07-23T07:51:42;17.30;1.00
23143;DHT22;11740;51.168;4.112;2022-07-23T07:54:11;17.40;1.00
23143;DHT22;11740;51.168;4.112;2022-07-23T07:56:39;17.40;1.00
23143;DHT22;11740;51.168;4.112;2022-07-23T07:59:07;17.40;99.90
23143;DHT22;11740;51.168;4.112;2022-07-23T08:01:36;17.50;1.00
23143;DHT22;11740;51.168;4.112;2022-07-23T08:04:03;17.60;1.00
23143;DHT22;11740;51.168;4.112;2022-07-23T08:06:31;17.60;1.00
23143;DHT22;11740;51.168;4.112;2022-07-23T08:08:58;17.80;1.00
23143;DHT22;11740;51.168;4.112;2022-07-23T08:11:25;17.90;1.00
23143;DHT22;11740;51.168;4.112;2022-07-23T08:13:53;18.10;1.00
23143;DHT22;11740;51.168;4.112;2022-07-23T08:16:20;18.20;1.00
23143;DHT22;11740;51.168;4.112;2022-07-23T08:18:47;18.40;99.90
23143;DHT22;11740;51.168;4.112;2022-07-23T08:21:14;18.50;99.90
23143;DHT22;11740;51.168;4.112;2022-07-23T08:23:41;18.70;99.90
23143;DHT22;11740;51.168;4.112;2022-07-23T08:26:07;18.90;1.00
23143;DHT22;11740;51.168;4.112;2022-07-23T08:28:34;19.20;1.00
23143;DHT22;11740;51.168;4.112;2022-07-23T08:31:02;19.40;1.00
23143;DHT22;11740;51.168;4.112;2022-07-23T08:33:29;19.70;1.00
23143;DHT22;11740;51.168;4.112;2022-07-23T08:36:02;20.10;99.90
23143;DHT22;11740;51.168;4.112;2022-07-23T08:38:31;20.40;99.90
23143;DHT22;11740;51.168;4.112;2022-07-23T08:40:59;20.70;1.00
23143;DHT22;11740;51.168;4.112;2022-07-23T08:43:29;20.90;99.90
23143;DHT22;11740;51.168;4.112;2022-07-23T08:46:00;21.00;1.00
23143;DHT22;11740;51.168;4.112;2022-07-23T08:48:30;21.10;99.90
23143;DHT22;11740;51.168;4.112;2022-07-23T08:51:01;21.20;1.00
23143;DHT22;11740;51.168;4.112;2022-07-23T08:53:31;21.30;1.00
23143;DHT22;11740;51.168;4.112;2022-07-23T08:56:02;21.40;1.00
23143;DHT22;11740;51.168;4.112;2022-07-23T08:58:30;21.30;48.80
23143;DHT22;11740;51.168;4.112;2022-07-23T09:00:58;21.40;99.90
23143;DHT22;11740;51.168;4.112;2022-07-23T09:03:32;21.40;99.90
23143;DHT22;11740;51.168;4.112;2022-07-23T09:06:02;21.40;1.00
23143;DHT22;11740;51.168;4.112;2022-07-23T09:08:35;21.20;99.90
23143;DHT22;11740;51.168;4.112;2022-07-23T09:11:05;21.20;1.00
23143;DHT22;11740;51.168;4.112;2022-07-23T09:13:52;21.20;1.00
23143;DHT22;11740;51.168;4.112;2022-07-23T09:16:24;21.20;99.90
23143;DHT22;11740;51.168;4.112;2022-07-23T09:19:04;21.30;1.00
23143;DHT22;11740;51.168;4.112;2022-07-23T09:21:37;21.40;1.00
23143;DHT22;11740;51.168;4.112;2022-07-23T09:24:12;21.50;99.90
23143;DHT22;11740;51.168;4.112;2022-07-23T09:26:48;21.70;1.00
23143;DHT22;11740;51.168;4.112;2022-07-23T09:29:17;21.80;22.80
23143;DHT22;11740;51.168;4.112;2022-07-23T09:31:57;21.80;99.90
23143;DHT22;11740;51.168;4.112;2022-07-23T09:37:08;22.20;99.90
23143;DHT22;11740;51.168;4.112;2022-07-23T09:39:36;22.30;99.90
23143;DHT22;11740;51.168;4.112;2022-07-23T09:42:32;22.40;99.90
23143;DHT22;11740;51.168;4.112;2022-07-23T09:45:00;22.60;99.90
23143;DHT22;11740;51.168;4.112;2022-07-23T09:47:30;22.80;99.90
23143;DHT22;11740;51.168;4.112;2022-07-23T09:50:02;22.80;99.90
23143;DHT22;11740;51.168;4.112;2022-07-23T09:52:49;22.90;99.90
23143;DHT22;11740;51.168;4.112;2022-07-23T09:55:17;23.00;1.00
23143;DHT22;11740;51.168;4.112;2022-07-23T09:57:46;23.00;1.00
23143;DHT22;11740;51.168;4.112;2022-07-23T10:00:17;23.10;1.00
23143;DHT22;11740;51.168;4.112;2022-07-23T10:02:46;23.10;1.00
23143;DHT22;11740;51.168;4.112;2022-07-23T10:05:13;23.30;1.00
23143;DHT22;11740;51.168;4.112;2022-07-23T10:07:41;23.30;1.00
23143;DHT22;11740;51.168;4.112;2022-07-23T10:10:10;23.50;1.00
23143;DHT22;11740;51.168;4.112;2022-07-23T10:12:38;23.40;55.60
23143;DHT22;11740;51.168;4.112;2022-07-23T10:15:17;23.50;83.10
23143;DHT22;11740;51.168;4.112;2022-07-23T10:17:45;23.60;1.00
23143;DHT22;11740;51.168;4.112;2022-07-23T10:20:12;23.60;99.90
23143;DHT22;11740;51.168;4.112;2022-07-23T10:26:02;23.70;24.10
23143;DHT22;11740;51.168;4.112;2022-07-23T10:29:12;23.80;99.90
23143;DHT22;11740;51.168;4.112;2022-07-23T10:31:58;23.70;19.70
23143;DHT22;11740;51.168;4.112;2022-07-23T10:37:32;23.80;1.00
23143;DHT22;11740;51.168;4.112;2022-07-23T10:40:18;24.00;1.00
23143;DHT22;11740;51.168;4.112;2022-07-23T10:42:48;24.00;1.00
23143;DHT22;11740;51.168;4.112;2022-07-23T10:45:34;24.00;1.00
23143;DHT22;11740;51.168;4.112;2022-07-23T10:50:45;24.10;1.00
23143;DHT22;11740;51.168;4.112;2022-07-23T10:54:03;24.20;1.00
23143;DHT22;11740;51.168;4.112;2022-07-23T10:56:51;24.30;1.00
23143;DHT22;11740;51.168;4.112;2022-07-23T11:02:40;24.40;1.00
23143;DHT22;11740;51.168;4.112;2022-07-23T11:05:11;24.40;1.00
23143;DHT22;11740;51.168;4.112;2022-07-23T11:24:00;25.00;99.90
23143;DHT22;11740;51.168;4.112;2022-07-23T11:26:43;25.00;99.90
23143;DHT22;11740;51.168;4.112;2022-07-23T11:37:07;25.40;99.90
23143;DHT22;11740;51.168;4.112;2022-07-23T11:39:35;25.50;99.90
23143;DHT22;11740;51.168;4.112;2022-07-23T11:42:04;25.60;99.90
23143;DHT22;11740;51.168;4.112;2022-07-23T11:44:37;25.70;99.90
23143;DHT22;11740;51.168;4.112;2022-07-23T11:47:07;25.80;99.90
23143;DHT22;11740;51.168;4.112;2022-07-23T11:49:36;25.90;99.90
23143;DHT22;11740;51.168;4.112;2022-07-23T11:52:11;25.90;99.90
23143;DHT22;11740;51.168;4.112;2022-07-23T11:54:53;26.10;99.90
23143;DHT22;11740;51.168;4.112;2022-07-23T11:57:29;26.20;99.90
23143;DHT22;11740;51.168;4.112;2022-07-23T12:00:06;26.40;99.90
23143;DHT22;11740;51.168;4.112;2022-07-23T12:02:45;26.50;99.90
23143;DHT22;11740;51.168;4.112;2022-07-23T12:05:25;26.60;99.90
23143;DHT22;11740;51.168;4.112;2022-07-23T12:08:05;26.70;99.90
23143;DHT22;11740;51.168;4.112;2022-07-23T12:10:42;26.70;99.90
23143;DHT22;11740;51.168;4.112;2022-07-23T12:13:12;26.70;99.90
23143;DHT22;11740;51.168;4.112;2022-07-23T12:15:47;27.00;99.90
23143;DHT22;11740;51.168;4.112;2022-07-23T12:18:19;27.20;99.90
23143;DHT22;11740;51.168;4.112;2022-07-23T12:20:51;27.40;99.90
23143;DHT22;11740;51.168;4.112;2022-07-23T12:23:20;27.50;99.90
23143;DHT22;11740;51.168;4.112;2022-07-23T12:25:50;27.50;99.90
23143;DHT22;11740;51.168;4.112;2022-07-23T12:28:21;27.70;99.90
23143;DHT22;11740;51.168;4.112;2022-07-23T12:30:55;27.70;99.90
23143;DHT22;11740;51.168;4.112;2022-07-23T12:33:32;27.90;99.90
23143;DHT22;11740;51.168;4.112;2022-07-23T12:36:08;28.00;99.90
23143;DHT22;11740;51.168;4.112;2022-07-23T12:38:41;28.00;99.90
23143;DHT22;11740;51.168;4.112;2022-07-23T12:41:10;27.90;99.90
23143;DHT22;11740;51.168;4.112;2022-07-23T12:43:39;28.10;99.90
23143;DHT22;11740;51.168;4.112;2022-07-23T12:46:25;28.10;99.90
23143;DHT22;11740;51.168;4.112;2022-07-23T12:48:56;28.30;99.90
23143;DHT22;11740;51.168;4.112;2022-07-23T12:51:28;28.70;99.90
23143;DHT22;11740;51.168;4.112;2022-07-23T12:54:06;28.70;99.90
23143;DHT22;11740;51.168;4.112;2022-07-23T12:56:40;28.70;99.90
23143;DHT22;11740;51.168;4.112;2022-07-23T12:59:31;28.90;99.90
23143;DHT22;11740;51.168;4.112;2022-07-23T13:01:58;29.00;99.90
23143;DHT22;11740;51.168;4.112;2022-07-23T13:04:26;29.30;99.90
23143;DHT22;11740;51.168;4.112;2022-07-23T13:06:58;29.00;99.90
23143;DHT22;11740;51.168;4.112;2022-07-23T13:09:33;29.40;99.90
23143;DHT22;11740;51.168;4.112;2022-07-23T13:12:08;29.40;99.90
23143;DHT22;11740;51.168;4.112;2022-07-23T13:14:38;29.60;99.90
23143;DHT22;11740;51.168;4.112;2022-07-23T13:17:05;29.60;99.90
23143;DHT22;11740;51.168;4.112;2022-07-23T13:19:33;29.80;99.90
23143;DHT22;11740;51.168;4.112;2022-07-23T13:22:01;30.00;99.90
23143;DHT22;11740;51.168;4.112;2022-07-23T13:24:34;30.10;99.90
23143;DHT22;11740;51.168;4.112;2022-07-23T13:27:05;30.20;99.90
23143;DHT22;11740;51.168;4.112;2022-07-23T13:29:33;30.20;99.90
23143;DHT22;11740;51.168;4.112;2022-07-23T13:32:02;30.20;99.90
23143;DHT22;11740;51.168;4.112;2022-07-23T13:34:38;30.50;99.90
23143;DHT22;11740;51.168;4.112;2022-07-23T13:37:07;30.30;99.90
23143;DHT22;11740;51.168;4.112;2022-07-23T13:39:34;30.70;99.90
23143;DHT22;11740;51.168;4.112;2022-07-23T13:42:04;30.90;99.90
23143;DHT22;11740;51.168;4.112;2022-07-23T13:44:34;31.20;99.90
23143;DHT22;11740;51.168;4.112;2022-07-23T13:47:05;31.10;99.90
23143;DHT22;11740;51.168;4.112;2022-07-23T13:49:32;31.10;99.90
23143;DHT22;11740;51.168;4.112;2022-07-23T13:52:02;31.30;99.90
23143;DHT22;11740;51.168;4.112;2022-07-23T13:54:33;31.60;99.90
23143;DHT22;11740;51.168;4.112;2022-07-23T13:57:00;31.60;99.90
23143;DHT22;11740;51.168;4.112;2022-07-23T13:59:27;31.70;99.90
23143;DHT22;11740;51.168;4.112;2022-07-23T14:01:55;31.90;99.90
23143;DHT22;11740;51.168;4.112;2022-07-23T14:04:42;32.20;99.90
23143;DHT22;11740;51.168;4.112;2022-07-23T14:07:09;32.20;99.90
23143;DHT22;11740;51.168;4.112;2022-07-23T14:09:37;32.10;99.90
23143;DHT22;11740;51.168;4.112;2022-07-23T14:12:05;32.20;99.90
23143;DHT22;11740;51.168;4.112;2022-07-23T14:14:33;32.20;99.90
23143;DHT22;11740;51.168;4.112;2022-07-23T14:17:03;32.30;99.90
23143;DHT22;11740;51.168;4.112;2022-07-23T14:19:30;32.40;99.90
23143;DHT22;11740;51.168;4.112;2022-07-23T14:21:58;32.60;99.90
23143;DHT22;11740;51.168;4.112;2022-07-23T14:24:26;32.60;99.90
23143;DHT22;11740;51.168;4.112;2022-07-23T14:27:00;32.70;99.90
23143;DHT22;11740;51.168;4.112;2022-07-23T14:29:28;32.70;99.90
23143;DHT22;11740;51.168;4.112;2022-07-23T14:31:56;32.90;99.90
23143;DHT22;11740;51.168;4.112;2022-07-23T14:34:24;33.00;99.90
23143;DHT22;11740;51.168;4.112;2022-07-23T14:36:54;33.10;99.90
23143;DHT22;11740;51.168;4.112;2022-07-23T14:39:21;33.20;99.90
23143;DHT22;11740;51.168;4.112;2022-07-23T14:41:48;33.30;99.90
23143;DHT22;11740;51.168;4.112;2022-07-23T14:44:15;33.30;99.90
23143;DHT22;11740;51.168;4.112;2022-07-23T14:46:42;33.00;99.90
23143;DHT22;11740;51.168;4.112;2022-07-23T14:49:09;33.30;99.90
23143;DHT22;11740;51.168;4.112;2022-07-23T14:51:36;33.40;99.90
23143;DHT22;11740;51.168;4.112;2022-07-23T14:54:04;33.50;99.90
23143;DHT22;11740;51.168;4.112;2022-07-23T14:56:32;33.60;99.90
23143;DHT22;11740;51.168;4.112;2022-07-23T14:59:01;33.80;99.90
23143;DHT22;11740;51.168;4.112;2022-07-23T15:01:30;33.90;99.90
23143;DHT22;11740;51.168;4.112;2022-07-23T15:04:00;33.90;99.90
23143;DHT22;11740;51.168;4.112;2022-07-23T15:06:48;34.00;99.90
23143;DHT22;11740;51.168;4.112;2022-07-23T15:09:15;34.00;99.90
23143;DHT22;11740;51.168;4.112;2022-07-23T15:11:43;33.90;99.90
23143;DHT22;11740;51.168;4.112;2022-07-23T15:14:10;34.10;99.90
23143;DHT22;11740;51.168;4.112;2022-07-23T15:16:43;34.10;99.90
23143;DHT22;11740;51.168;4.112;2022-07-23T15:19:12;34.30;99.90
23143;DHT22;11740;51.168;4.112;2022-07-23T15:21:41;34.30;99.90
23143;DHT22;11740;51.168;4.112;2022-07-23T15:24:14;34.50;99.90
23143;DHT22;11740;51.168;4.112;2022-07-23T15:26:42;34.80;99.90
23143;DHT22;11740;51.168;4.112;2022-07-23T15:29:08;34.60;99.90
23143;DHT22;11740;51.168;4.112;2022-07-23T15:31:35;34.80;99.90
23143;DHT22;11740;51.168;4.112;2022-07-23T15:34:03;34.80;99.90
23143;DHT22;11740;51.168;4.112;2022-07-23T15:36:33;35.00;99.90
23143;DHT22;11740;51.168;4.112;2022-07-23T15:39:01;35.10;99.90
23143;DHT22;11740;51.168;4.112;2022-07-23T15:41:29;35.10;99.90
23143;DHT22;11740;51.168;4.112;2022-07-23T15:43:57;34.90;99.90
23143;DHT22;11740;51.168;4.112;2022-07-23T15:46:25;35.10;99.90
23143;DHT22;11740;51.168;4.112;2022-07-23T15:48:53;35.30;99.90
23143;DHT22;11740;51.168;4.112;2022-07-23T15:51:21;35.10;99.90
23143;DHT22;11740;51.168;4.112;2022-07-23T15:53:48;35.20;99.90
23143;DHT22;11740;51.168;4.112;2022-07-23T15:56:15;35.50;99.90
23143;DHT22;11740;51.168;4.112;2022-07-23T15:58:43;35.50;99.90
23143;DHT22;11740;51.168;4.112;2022-07-23T16:01:11;35.60;99.90
23143;DHT22;11740;51.168;4.112;2022-07-23T16:03:39;35.60;99.90
23143;DHT22;11740;51.168;4.112;2022-07-23T16:06:07;35.80;99.90
23143;DHT22;11740;51.168;4.112;2022-07-23T16:08:44;36.00;99.90
23143;DHT22;11740;51.168;4.112;2022-07-23T16:11:11;36.00;99.90
23143;DHT22;11740;51.168;4.112;2022-07-23T16:13:40;36.10;99.90
23143;DHT22;11740;51.168;4.112;2022-07-23T16:16:07;35.80;99.90
23143;DHT22;11740;51.168;4.112;2022-07-23T16:18:36;36.10;99.90
23143;DHT22;11740;51.168;4.112;2022-07-23T16:21:03;36.50;99.90
23143;DHT22;11740;51.168;4.112;2022-07-23T16:23:37;36.40;99.90
23143;DHT22;11740;51.168;4.112;2022-07-23T16:26:06;36.50;99.90
23143;DHT22;11740;51.168;4.112;2022-07-23T16:28:34;36.60;99.90